sensor_id;sensor_type;location;lat;lon;timestamp;P1;P2;P0
49570;PMS7003;36970;39.352;20.286;2022-08-01T00:08:52;12.00;10.67;8.00
49570;PMS7003;36970;39.352;20.286;2022-08-01T00:39:10;16.00;15.67;12.33
49570;PMS7003;36970;39.352;20.286;2022-08-01T01:09:30;11.67;11.00;8.00
49570;PMS7003;36970;39.352;20.286;2022-08-01T01:39:56;6.00;6.00;5.00
49570;PMS7003;36970;39.352;20.286;2022-08-01T02:10:15;8.00;8.00;6.67
49570;PMS7003;36970;39.352;20.286;2022-08-01T02:40:34;7.33;7.33;6.00
49570;PMS7003;36970;39.352;20.286;2022-08-01T03:10:56;8.00;8.00;7.00
49570;PMS7003;36970;39.352;20.286;2022-08-01T03:41:18;9.00;9.00;6.00
49570;PMS7003;36970;39.352;20.286;2022-08-01T04:11:37;10.33;8.67;6.67
49570;PMS7003;36970;39.352;20.286;2022-08-01T04:41:55;10.67;10.00;6.67
49570;PMS7003;36970;39.352;20.286;2022-08-01T05:12:14;8.00;8.00;6.00
49570;PMS7003;36970;39.352;20.286;2022-08-01T05:42:31;10.67;10.00;7.00
49570;PMS7003;36970;39.352;20.286;2022-08-01T06:12:49;12.33;11.33;8.67
49570;PMS7003;36970;39.352;20.286;2022-08-01T06:43:06;12.00;12.00;9.00
49570;PMS7003;36970;39.352;20.286;2022-08-01T07:13:25;10.67;10.67;9.00
49570;PMS7003;36970;39.352;20.286;2022-08-01T07:43:43;13.00;13.00;11.00
49570;PMS7003;36970;39.352;20.286;2022-08-01T08:14:00;10.67;10.67;8.00
49570;PMS7003;36970;39.352;20.286;2022-08-01T08:44:18;13.00;12.00;10.00
49570;PMS7003;36970;39.352;20.286;2022-08-01T09:14:36;12.67;12.00;9.67
49570;PMS7003;36970;39.352;20.286;2022-08-01T09:45:01;14.67;12.67;9.33
49570;PMS7003;36970;39.352;20.286;2022-08-01T10:15:19;9.67;9.67;7.33
49570;PMS7003;36970;39.352;20.286;2022-08-01T10:45:38;12.67;12.67;9.33
49570;PMS7003;36970;39.352;20.286;2022-08-01T11:15:56;8.33;8.33;6.00
49570;PMS7003;36970;39.352;20.286;2022-08-01T11:46:49;13.67;12.67;9.33
49570;PMS7003;36970;39.352;20.286;2022-08-01T12:17:12;13.67;13.00;8.67
49570;PMS7003;36970;39.352;20.286;2022-08-01T12:47:29;11.67;9.67;8.00
49570;PMS7003;36970;39.352;20.286;2022-08-01T13:17:47;12.00;12.00;10.00
49570;PMS7003;36970;39.352;20.286;2022-08-01T13:48:05;13.33;12.67;9.33
49570;PMS7003;36970;39.352;20.286;2022-08-01T14:18:23;15.33;14.00;11.00
49570;PMS7003;36970;39.352;20.286;2022-08-01T14:48:40;16.00;16.00;12.33
49570;PMS7003;36970;39.352;20.286;2022-08-01T15:18:57;14.00;14.00;13.00
49570;PMS7003;36970;39.352;20.286;2022-08-01T15:49:15;15.00;14.67;12.33
49570;PMS7003;36970;39.352;20.286;2022-08-01T16:19:33;12.33;11.33;10.00
49570;PMS7003;36970;39.352;20.286;2022-08-01T16:49:50;15.33;14.00;10.67
49570;PMS7003;36970;39.352;20.286;2022-08-01T17:20:08;13.67;13.67;10.33
49570;PMS7003;36970;39.352;20.286;2022-08-01T17:50:27;13.00;12.00;10.67
49570;PMS7003;36970;39.352;20.286;2022-08-01T18:20:44;13.00;12.00;10.67
49570;PMS7003;36970;39.352;20.286;2022-08-01T18:51:02;18.33;17.67;12.33
49570;PMS7003;36970;39.352;20.286;2022-08-01T19:21:20;14.33;14.33;12.00
49570;PMS7003;36970;39.352;20.286;2022-08-01T19:51:41;20.00;16.33;12.67
49570;PMS7003;36970;39.352;20.286;2022-08-01T20:22:03;17.00;16.00;13.67
49570;PMS7003;36970;39.352;20.286;2022-08-01T20:52:24;15.33;15.00;11.33
49570;PMS7003;36970;39.352;20.286;2022-08-01T21:22:45;18.00;15.67;13.33
49570;PMS7003;36970;39.352;20.286;2022-08-01T21:53:11;17.67;17.67;13.00
49570;PMS7003;36970;39.352;20.286;2022-08-01T22:23:38;18.33;18.00;14.00
49570;PMS7003;36970;39.352;20.286;2022-08-01T22:53:56;15.67;14.67;11.33
49570;PMS7003;36970;39.352;20.286;2022-08-01T23:24:19;15.00;15.00;11.33
49570;PMS7003;36970;39.352;20.286;2022-08-01T23:54:39;19.00;17.67;11.33
